Time;durP1;ratioP1;P1;durP2;ratioP2;P2;SDS_P1;SDS_P2;PMS_P1;PMS_P2;Temp;Humidity;BMP_temperature;BMP_pressure;BME280_temperature;BME280_humidity;BME280_pressure;Samples;Min_cycle;Max_cycle;Signal;HPM_P1;HPM_P2
2021/12/19 00:02:16;;;;;;;470.80;446.00;;;7.00;99.90;;;;;;4411907;32;20512;-64
2021/12/19 00:08:27;;;;;;;448.27;425.43;;;7.00;99.90;;;;;;4408085;32;20632;-66
2021/12/19 00:10:11;;;;;;;456.43;433.43;;;7.10;99.90;;;;;;4389573;32;20167;-65
2021/12/19 00:12:39;;;;;;;459.43;436.33;;;7.10;99.90;;;;;;4388884;32;20231;-67
2021/12/19 00:15:07;;;;;;;468.13;445.20;;;7.10;99.90;;;;;;4390906;32;20644;-65
2021/12/19 00:17:34;;;;;;;466.83;443.23;;;7.10;99.90;;;;;;4390680;32;20753;-65
2021/12/19 00:20:01;;;;;;;482.27;457.70;;;7.10;99.90;;;;;;4389631;32;20153;-66
2021/12/19 00:22:27;;;;;;;462.50;439.33;;;7.10;99.90;;;;;;4390883;32;20172;-65
2021/12/19 00:24:54;;;;;;;458.80;436.73;;;7.10;99.90;;;;;;4390959;32;20204;-64
2021/12/19 00:27:21;;;;;;;463.17;440.40;;;7.20;99.90;;;;;;4389090;32;20603;-67
2021/12/19 00:29:49;;;;;;;461.63;439.00;;;7.00;99.90;;;;;;4388882;32;20335;-66
2021/12/19 00:32:17;;;;;;;458.60;435.67;;;7.10;99.90;;;;;;4388511;32;20208;-65
2021/12/19 00:34:44;;;;;;;467.23;444.47;;;7.00;99.90;;;;;;4387849;32;20219;-65
2021/12/19 00:37:11;;;;;;;462.07;439.40;;;7.00;99.90;;;;;;4382623;32;20187;-68
2021/12/19 00:39:38;;;;;;;475.60;452.03;;;7.10;99.90;;;;;;4378514;32;20227;-64
2021/12/19 00:42:08;;;;;;;466.80;444.27;;;7.10;99.90;;;;;;4389606;32;20252;-65
2021/12/19 00:44:37;;;;;;;450.53;429.03;;;7.10;99.90;;;;;;4390555;32;20585;-66
2021/12/19 00:47:07;;;;;;;462.53;440.10;;;7.10;99.90;;;;;;4395604;32;20194;-65
2021/12/19 00:49:35;;;;;;;460.50;437.73;;;7.00;99.90;;;;;;4418531;32;20159;-65
2021/12/19 00:52:03;;;;;;;462.90;440.70;;;6.90;99.90;;;;;;4419635;32;20170;-64
2021/12/19 00:54:30;;;;;;;454.00;431.33;;;7.00;99.90;;;;;;4421310;32;20202;-66
2021/12/19 00:56:57;;;;;;;468.77;446.13;;;6.80;99.90;;;;;;4421878;32;20600;-65
2021/12/19 00:59:24;;;;;;;448.77;427.40;;;6.90;99.90;;;;;;4421421;32;20147;-66
2021/12/19 01:01:51;;;;;;;461.90;439.23;;;6.90;99.90;;;;;;4414816;32;20172;-68
2021/12/19 01:04:20;;;;;;;457.43;434.80;;;6.90;99.90;;;;;;4406023;32;20217;-67
2021/12/19 01:06:48;;;;;;;456.37;433.57;;;6.90;99.90;;;;;;4405912;32;20148;-66
2021/12/19 01:09:16;;;;;;;475.53;451.43;;;6.90;99.90;;;;;;4412963;32;20155;-68
2021/12/19 01:11:47;;;;;;;471.80;448.63;;;6.80;99.90;;;;;;4416229;32;20156;-67
2021/12/19 01:14:14;;;;;;;457.23;434.37;;;6.80;99.90;;;;;;4405805;32;20573;-65
2021/12/19 01:16:40;;;;;;;460.03;437.47;;;6.90;99.90;;;;;;4405309;32;20155;-67
2021/12/19 01:19:07;;;;;;;460.60;437.10;;;6.90;99.90;;;;;;4406503;32;20151;-65
2021/12/19 01:21:36;;;;;;;485.90;461.00;;;6.90;99.90;;;;;;4407203;32;20179;-67
2021/12/19 01:24:03;;;;;;;466.80;443.13;;;7.00;99.90;;;;;;4406867;32;20183;-65
2021/12/19 01:26:30;;;;;;;470.90;446.70;;;7.00;99.90;;;;;;4422113;32;20182;-64
2021/12/19 01:28:57;;;;;;;479.00;454.07;;;7.00;99.90;;;;;;4420108;32;20151;-65
2021/12/19 01:31:24;;;;;;;466.03;442.70;;;7.00;99.90;;;;;;4408947;32;20180;-66
2021/12/19 01:33:50;;;;;;;482.10;457.27;;;7.00;99.90;;;;;;4406191;32;20581;-64
2021/12/19 01:36:18;;;;;;;452.03;429.27;;;7.10;99.90;;;;;;4406036;32;20156;-63
2021/12/19 01:38:46;;;;;;;468.30;444.30;;;7.10;99.90;;;;;;4407282;32;20163;-66
2021/12/19 01:41:13;;;;;;;468.53;444.37;;;7.10;99.90;;;;;;4407286;32;20183;-66
2021/12/19 01:43:40;;;;;;;449.33;425.80;;;7.10;99.90;;;;;;4406889;32;20186;-65
2021/12/19 01:46:07;;;;;;;452.60;428.53;;;7.00;99.90;;;;;;4406014;32;20581;-64
2021/12/19 01:48:34;;;;;;;440.80;416.20;;;6.90;99.90;;;;;;4408205;32;20159;-67
2021/12/19 01:51:01;;;;;;;433.33;408.80;;;6.90;99.90;;;;;;4412529;32;20215;-65
2021/12/19 01:53:29;;;;;;;414.43;392.40;;;6.80;99.90;;;;;;4420671;32;20175;-65
2021/12/19 01:55:58;;;;;;;387.70;367.13;;;6.80;99.90;;;;;;4420586;32;20224;-64
2021/12/19 01:58:25;;;;;;;365.60;345.33;;;6.80;99.90;;;;;;4407790;32;20177;-66
2021/12/19 02:00:53;;;;;;;380.90;360.13;;;6.80;99.90;;;;;;4407083;32;20171;-68
2021/12/19 02:03:22;;;;;;;361.83;341.50;;;6.90;99.90;;;;;;4407020;32;20623;-66
2021/12/19 02:05:49;;;;;;;369.50;349.57;;;6.90;99.90;;;;;;4407049;32;20182;-64
2021/12/19 02:08:17;;;;;;;378.93;358.77;;;6.90;99.90;;;;;;4405402;32;20163;-66
2021/12/19 02:10:44;;;;;;;394.97;373.63;;;7.10;99.90;;;;;;4405257;32;20144;-66
2021/12/19 02:13:14;;;;;;;425.67;403.47;;;7.00;99.90;;;;;;4412828;32;20152;-66
2021/12/19 02:15:43;;;;;;;436.83;413.23;;;7.10;99.90;;;;;;4420744;32;20174;-68
2021/12/19 02:18:11;;;;;;;424.63;402.67;;;7.10;99.90;;;;;;4420634;32;20170;-65
2021/12/19 02:20:43;;;;;;;466.53;442.53;;;7.10;99.90;;;;;;4420150;32;20534;-68
2021/12/19 02:23:11;;;;;;;444.77;421.60;;;7.10;99.90;;;;;;4420396;32;20568;-64
2021/12/19 02:25:39;;;;;;;457.10;432.77;;;7.10;99.90;;;;;;4406453;32;20173;-69
2021/12/19 02:28:07;;;;;;;449.70;426.93;;;7.10;99.90;;;;;;4406356;32;20588;-68
2021/12/19 02:30:34;;;;;;;446.93;424.57;;;7.10;99.90;;;;;;4407171;32;20175;-68
2021/12/19 02:33:02;;;;;;;437.73;416.40;;;7.10;99.90;;;;;;4408723;32;20214;-66
2021/12/19 02:35:32;;;;;;;452.47;430.33;;;7.10;99.90;;;;;;4409507;32;20649;-65
2021/12/19 02:49:26;;;;;;;437.63;417.37;;;7.10;99.90;;;;;;4392293;32;20182;-67
2021/12/19 02:51:55;;;;;;;451.10;429.03;;;7.20;99.90;;;;;;4391494;32;20168;-67
2021/12/19 02:54:24;;;;;;;453.37;431.70;;;7.20;99.90;;;;;;4388973;32;20191;-67
2021/12/19 02:56:52;;;;;;;441.53;421.10;;;7.20;99.90;;;;;;4378295;32;20231;-66
2021/12/19 02:59:19;;;;;;;441.83;421.67;;;7.20;99.90;;;;;;4384542;32;20454;-65
2021/12/19 03:01:46;;;;;;;464.00;443.03;;;7.20;99.90;;;;;;4390390;32;20205;-66
2021/12/19 03:04:14;;;;;;;463.20;442.07;;;7.20;99.90;;;;;;4392155;32;20208;-68
2021/12/19 03:06:46;;;;;;;464.03;443.00;;;7.20;99.90;;;;;;4384349;32;20224;-67
2021/12/19 03:09:17;;;;;;;432.50;413.27;;;7.20;99.90;;;;;;4391318;32;20199;-66
2021/12/19 03:12:06;;;;;;;432.40;412.57;;;7.20;99.90;;;;;;4392122;32;20160;-66
2021/12/19 03:20:01;;;;;;;428.67;409.30;;;7.20;99.90;;;;;;4360651;32;20507;-67
2021/12/19 03:22:28;;;;;;;415.47;397.37;;;7.20;99.90;;;;;;4358049;33;20244;-68
2021/12/19 03:24:55;;;;;;;424.00;404.60;;;7.20;99.90;;;;;;4358196;33;20165;-68
2021/12/19 03:27:23;;;;;;;423.10;404.37;;;7.20;99.90;;;;;;4360139;33;20233;-69
2021/12/19 03:29:50;;;;;;;418.83;400.10;;;7.30;99.90;;;;;;4361770;32;20576;-68
2021/12/19 03:32:17;;;;;;;400.77;382.70;;;7.20;99.90;;;;;;4360077;32;20191;-68
2021/12/19 03:34:44;;;;;;;392.83;374.67;;;7.10;99.90;;;;;;4360677;32;20237;-67
2021/12/19 03:37:11;;;;;;;396.27;378.50;;;7.20;99.90;;;;;;4361705;32;20184;-66
2021/12/19 03:39:55;;;;;;;366.77;350.27;;;7.10;99.90;;;;;;4359798;32;20195;-67
2021/12/19 03:42:24;;;;;;;359.03;342.47;;;7.20;99.90;;;;;;4361257;32;20164;-68
2021/12/19 03:44:51;;;;;;;362.33;345.80;;;7.20;99.90;;;;;;4360029;33;20172;-69
2021/12/19 03:47:18;;;;;;;353.30;337.33;;;7.30;99.90;;;;;;4361557;32;20224;-67
2021/12/19 03:49:46;;;;;;;390.43;372.80;;;7.30;99.90;;;;;;4360997;32;20187;-66
2021/12/19 03:52:13;;;;;;;381.37;364.13;;;7.30;99.90;;;;;;4360048;33;20199;-67
2021/12/19 03:54:40;;;;;;;394.47;376.67;;;7.40;99.90;;;;;;4391738;32;20176;-68
2021/12/19 03:57:07;;;;;;;395.77;376.87;;;7.40;99.90;;;;;;4416118;32;20172;-68
2021/12/19 03:59:35;;;;;;;398.57;380.33;;;7.50;99.90;;;;;;4418699;32;20187;-67
2021/12/19 04:02:02;;;;;;;384.63;366.93;;;7.40;99.90;;;;;;4407673;32;20183;-65
2021/12/19 04:04:30;;;;;;;382.67;364.83;;;7.40;99.90;;;;;;4408455;32;20482;-68
2021/12/19 04:06:57;;;;;;;387.17;369.90;;;7.40;99.90;;;;;;4408125;32;20155;-66
2021/12/19 04:09:24;;;;;;;389.77;371.03;;;7.50;99.90;;;;;;4410412;32;20187;-67
2021/12/19 04:11:54;;;;;;;385.60;367.03;;;7.50;99.90;;;;;;4406579;32;20164;-65
2021/12/19 04:14:22;;;;;;;376.87;359.50;;;7.50;99.90;;;;;;4416339;32;20147;-66
2021/12/19 04:16:50;;;;;;;380.50;362.70;;;7.50;99.90;;;;;;4422793;32;20166;-65
2021/12/19 04:19:20;;;;;;;391.40;372.70;;;7.50;99.90;;;;;;4421738;32;20151;-66
2021/12/19 04:21:47;;;;;;;375.03;357.83;;;7.60;99.90;;;;;;4415730;32;20186;-67
2021/12/19 04:24:14;;;;;;;408.43;389.83;;;7.60;99.90;;;;;;4421443;32;20183;-65
2021/12/19 04:26:41;;;;;;;418.30;399.30;;;7.60;99.90;;;;;;4410452;32;20186;-66
2021/12/19 04:29:07;;;;;;;411.47;392.77;;;7.60;99.90;;;;;;4406477;32;20178;-65
2021/12/19 04:31:34;;;;;;;391.63;373.70;;;7.60;99.90;;;;;;4406387;32;20590;-66
2021/12/19 04:34:03;;;;;;;414.33;394.83;;;7.50;99.90;;;;;;4408086;32;20166;-65
2021/12/19 04:36:34;;;;;;;400.40;382.43;;;7.60;99.90;;;;;;4407684;32;20178;-65
2021/12/19 04:43:00;;;;;;;373.80;356.83;;;7.50;99.90;;;;;;4406992;32;20163;-64
2021/12/19 04:56:02;;;;;;;324.83;310.10;;;7.60;99.90;;;;;;4375261;32;20188;-66
2021/12/19 05:01:31;;;;;;;339.23;323.87;;;7.60;99.90;;;;;;4375201;32;20516;-65
2021/12/19 05:04:10;;;;;;;343.73;327.47;;;7.60;99.90;;;;;;4375428;32;20153;-65
2021/12/19 05:14:01;;;;;;;348.17;332.00;;;7.60;99.90;;;;;;4373279;32;20487;-65
2021/12/19 05:15:05;;;;;;;311.60;296.50;;;7.60;99.90;;;;;;4359320;32;20195;-67
2021/12/19 05:17:33;;;;;;;317.50;302.70;;;7.60;99.90;;;;;;4362700;32;20478;-67
2021/12/19 05:20:13;;;;;;;324.10;308.20;;;7.60;99.90;;;;;;4374233;32;20606;-65
2021/12/19 05:22:47;;;;;;;329.60;313.63;;;7.60;99.90;;;;;;4375111;32;20156;-67
2021/12/19 05:25:18;;;;;;;313.30;298.43;;;7.60;99.90;;;;;;4373191;32;20295;-67
2021/12/19 05:27:48;;;;;;;296.40;282.20;;;7.60;99.90;;;;;;4375066;32;20164;-66
2021/12/19 05:30:16;;;;;;;316.93;301.87;;;7.50;99.90;;;;;;4375031;32;20207;-68
2021/12/19 05:32:43;;;;;;;310.20;295.57;;;7.60;99.90;;;;;;4389791;32;20210;-66
2021/12/19 05:35:13;;;;;;;317.60;302.87;;;7.60;99.90;;;;;;4407393;32;20163;-65
2021/12/19 05:46:06;;;;;;;301.47;286.77;;;7.80;99.90;;;;;;4344897;33;20576;-69
2021/12/19 05:48:33;;;;;;;309.47;295.23;;;7.90;99.90;;;;;;4345127;33;20231;-68
2021/12/19 05:51:00;;;;;;;297.17;283.13;;;7.80;99.90;;;;;;4343424;33;20181;-67
2021/12/19 05:53:29;;;;;;;310.73;295.70;;;7.80;99.90;;;;;;4345073;33;20538;-67
2021/12/19 05:55:56;;;;;;;301.33;287.40;;;7.70;99.90;;;;;;4343481;33;20220;-66
2021/12/19 05:58:23;;;;;;;305.33;291.50;;;7.70;99.90;;;;;;4336142;33;20154;-66
2021/12/19 06:00:49;;;;;;;309.93;296.33;;;7.60;99.90;;;;;;4328612;33;20165;-67
2021/12/19 06:03:16;;;;;;;329.70;315.53;;;7.40;99.90;;;;;;4332762;33;20179;-64
2021/12/19 06:05:43;;;;;;;298.70;285.67;;;7.40;99.90;;;;;;4347663;33;20595;-67
2021/12/19 06:08:10;;;;;;;314.20;300.07;;;7.40;99.90;;;;;;4348057;33;20225;-66
2021/12/19 06:10:38;;;;;;;323.17;308.50;;;7.40;99.90;;;;;;4346386;33;20169;-67
2021/12/19 06:13:05;;;;;;;332.03;317.53;;;7.40;99.90;;;;;;4333490;33;20165;-66
2021/12/19 06:15:32;;;;;;;336.27;320.57;;;7.40;99.90;;;;;;4333288;33;20197;-65
2021/12/19 06:17:59;;;;;;;334.53;319.40;;;7.50;99.90;;;;;;4361324;32;20655;-67
2021/12/19 06:20:28;;;;;;;330.63;315.33;;;7.40;99.90;;;;;;4399912;32;20156;-65
2021/12/19 06:22:55;;;;;;;335.80;320.50;;;7.50;99.90;;;;;;4408140;32;20479;-66
2021/12/19 06:25:21;;;;;;;326.17;311.37;;;7.60;99.90;;;;;;4408271;32;20171;-65
2021/12/19 06:27:50;;;;;;;351.83;335.87;;;7.60;99.90;;;;;;4409870;32;20148;-67
2021/12/19 06:30:17;;;;;;;339.13;323.43;;;7.50;99.90;;;;;;4412631;32;20186;-65
2021/12/19 06:32:44;;;;;;;362.40;345.80;;;7.50;99.90;;;;;;4408696;32;20171;-68
2021/12/19 06:35:18;;;;;;;315.40;300.77;;;7.50;99.90;;;;;;4409367;32;20169;-65
2021/12/19 06:37:45;;;;;;;308.73;294.20;;;7.60;99.90;;;;;;4423176;32;20170;-67
2021/12/19 06:40:15;;;;;;;307.43;293.17;;;7.60;99.90;;;;;;4423614;32;20182;-66
2021/12/19 06:42:43;;;;;;;313.77;299.63;;;7.50;99.90;;;;;;4421563;32;20182;-65
2021/12/19 06:45:12;;;;;;;341.90;326.43;;;7.40;99.90;;;;;;4423930;32;20599;-65
2021/12/19 06:47:39;;;;;;;338.37;322.73;;;7.40;99.90;;;;;;4424898;32;20179;-65
2021/12/19 06:50:08;;;;;;;337.90;322.37;;;7.40;99.90;;;;;;4423251;32;20165;-67
2021/12/19 06:52:35;;;;;;;350.70;335.10;;;7.40;99.90;;;;;;4424720;32;20225;-66
2021/12/19 06:55:03;;;;;;;337.30;322.07;;;7.40;99.90;;;;;;4424749;32;20172;-67
2021/12/19 06:57:29;;;;;;;323.47;308.93;;;7.40;99.90;;;;;;4422056;32;20222;-67
2021/12/19 06:59:56;;;;;;;324.97;310.80;;;7.30;99.90;;;;;;4424630;32;20559;-66
2021/12/19 07:02:25;;;;;;;320.63;306.40;;;7.30;99.90;;;;;;4418637;32;20183;-65
2021/12/19 07:04:51;;;;;;;335.73;321.10;;;7.30;99.90;;;;;;4423183;32;20174;-64
2021/12/19 07:07:19;;;;;;;329.50;314.90;;;7.30;99.90;;;;;;4422958;32;20207;-66
2021/12/19 07:09:46;;;;;;;346.60;331.17;;;7.30;99.90;;;;;;4422876;32;20541;-67
2021/12/19 07:12:12;;;;;;;348.27;332.50;;;7.20;99.90;;;;;;4416993;32;20159;-65
2021/12/19 07:14:39;;;;;;;334.83;319.70;;;7.30;99.90;;;;;;4417409;32;20156;-66
2021/12/19 07:17:06;;;;;;;337.60;322.80;;;7.30;99.90;;;;;;4419373;32;20510;-64
2021/12/19 07:19:34;;;;;;;327.80;312.97;;;7.30;99.90;;;;;;4404565;32;20588;-66
2021/12/19 07:22:01;;;;;;;338.17;323.37;;;7.30;99.90;;;;;;4403179;32;20187;-65
2021/12/19 07:24:28;;;;;;;339.57;324.30;;;7.30;99.90;;;;;;4405055;32;20198;-65
2021/12/19 07:26:58;;;;;;;322.93;309.07;;;7.20;99.90;;;;;;4402166;32;20211;-66
2021/12/19 07:29:26;;;;;;;350.43;335.27;;;7.30;99.90;;;;;;4402813;32;20243;-67
2021/12/19 07:31:53;;;;;;;343.33;328.33;;;7.30;99.90;;;;;;4403631;32;20604;-66
2021/12/19 07:34:20;;;;;;;318.07;304.40;;;7.30;99.90;;;;;;4403940;32;20233;-66
2021/12/19 07:36:51;;;;;;;326.07;312.07;;;7.40;99.90;;;;;;4403804;32;20493;-66
2021/12/19 07:39:26;;;;;;;327.83;313.30;;;7.40;99.90;;;;;;4403052;32;20571;-65
2021/12/19 07:41:53;;;;;;;334.97;320.53;;;7.40;99.90;;;;;;4413642;32;20162;-67
2021/12/19 07:44:20;;;;;;;307.80;294.50;;;7.40;99.90;;;;;;4402624;32;20242;-65
2021/12/19 07:46:47;;;;;;;303.50;290.77;;;7.30;99.90;;;;;;4402613;32;20199;-65
2021/12/19 07:49:14;;;;;;;316.23;303.20;;;7.30;99.90;;;;;;4406652;32;20187;-65
2021/12/19 07:51:42;;;;;;;312.37;299.00;;;7.30;99.90;;;;;;4401583;32;20178;-65
2021/12/19 07:54:10;;;;;;;314.87;301.37;;;7.30;99.90;;;;;;4403464;32;20179;-66
2021/12/19 07:56:37;;;;;;;309.20;296.30;;;7.20;99.90;;;;;;4406432;32;20172;-66
2021/12/19 07:59:04;;;;;;;327.20;313.40;;;7.20;99.90;;;;;;4404108;32;20160;-66
2021/12/19 08:01:31;;;;;;;335.53;321.30;;;7.20;99.90;;;;;;4402357;32;20182;-64
2021/12/19 08:03:58;;;;;;;327.43;313.73;;;7.20;99.90;;;;;;4402224;32;20561;-66
2021/12/19 08:06:25;;;;;;;322.70;309.17;;;7.10;99.90;;;;;;4404795;32;20194;-67
2021/12/19 08:08:54;;;;;;;345.73;331.10;;;7.10;99.90;;;;;;4404150;32;20184;-65
2021/12/19 08:11:42;;;;;;;313.27;300.30;;;7.10;99.90;;;;;;4402809;32;20155;-65
2021/12/19 08:14:12;;;;;;;315.67;302.60;;;7.10;99.90;;;;;;4403374;32;20163;-65
2021/12/19 08:16:40;;;;;;;325.90;312.60;;;7.10;99.90;;;;;;4401064;32;20175;-63
2021/12/19 08:19:07;;;;;;;337.40;323.57;;;7.10;99.90;;;;;;4412600;32;20572;-65
2021/12/19 08:21:37;;;;;;;333.13;319.63;;;7.10;99.90;;;;;;4402898;32;20211;-66
2021/12/19 08:24:10;;;;;;;336.03;322.30;;;7.10;99.90;;;;;;4402945;32;20212;-65
2021/12/19 08:26:40;;;;;;;323.70;310.67;;;7.10;99.90;;;;;;4410737;32;20167;-64
2021/12/19 08:29:08;;;;;;;335.33;321.77;;;7.10;99.90;;;;;;4408674;32;20190;-65
2021/12/19 08:31:35;;;;;;;325.87;312.23;;;7.10;99.90;;;;;;4414868;32;20272;-64
2021/12/19 08:34:02;;;;;;;332.77;319.00;;;7.10;99.90;;;;;;4407175;32;20535;-66
2021/12/19 08:36:29;;;;;;;344.27;330.20;;;7.20;99.90;;;;;;4409200;32;20159;-66
2021/12/19 08:38:56;;;;;;;323.93;310.87;;;7.20;99.90;;;;;;4406184;32;20178;-65
2021/12/19 08:41:22;;;;;;;331.00;317.60;;;7.30;99.90;;;;;;4407653;32;20479;-67
2021/12/19 08:43:51;;;;;;;315.07;302.57;;;7.30;99.90;;;;;;4407726;32;20219;-67
2021/12/19 08:46:18;;;;;;;323.07;310.00;;;7.30;99.90;;;;;;4416702;32;20195;-65
2021/12/19 08:48:45;;;;;;;327.83;314.73;;;7.30;99.90;;;;;;4415630;32;20194;-66
2021/12/19 08:51:12;;;;;;;305.60;293.37;;;7.30;99.90;;;;;;4415675;32;20183;-65
2021/12/19 08:53:40;;;;;;;296.43;284.60;;;7.30;99.90;;;;;;4408774;32;20173;-66
2021/12/19 08:56:07;;;;;;;278.50;267.43;;;7.30;99.90;;;;;;4406205;32;20190;-67
2021/12/19 08:58:34;;;;;;;278.37;267.23;;;7.30;99.90;;;;;;4415837;32;20159;-65
2021/12/19 09:01:02;;;;;;;324.83;311.73;;;7.10;99.90;;;;;;4422180;32;20182;-64
2021/12/19 09:03:30;;;;;;;309.97;297.63;;;7.20;99.90;;;;;;4408982;32;20219;-65
2021/12/19 09:05:57;;;;;;;254.40;244.43;;;7.30;99.90;;;;;;4407349;32;20182;-67
2021/12/19 09:08:24;;;;;;;270.43;259.90;;;7.30;99.90;;;;;;4412831;32;20201;-66
2021/12/19 09:10:52;;;;;;;261.17;251.00;;;7.20;99.90;;;;;;4421132;32;20151;-66
2021/12/19 09:13:19;;;;;;;264.23;253.83;;;7.20;99.90;;;;;;4420952;32;20208;-67
2021/12/19 09:15:46;;;;;;;264.00;253.57;;;7.30;99.90;;;;;;4405521;32;20269;-66
2021/12/19 09:18:14;;;;;;;269.10;258.53;;;7.50;99.90;;;;;;4405378;32;20234;-65
2021/12/19 09:20:41;;;;;;;261.87;251.53;;;7.70;99.90;;;;;;4406661;32;20222;-66
2021/12/19 09:23:08;;;;;;;260.03;249.77;;;7.60;99.90;;;;;;4404661;32;20156;-66
2021/12/19 09:25:37;;;;;;;256.97;246.83;;;7.50;99.90;;;;;;4401341;32;20174;-65
2021/12/19 09:28:04;;;;;;;269.03;258.33;;;7.40;99.90;;;;;;4404674;32;20184;-64
2021/12/19 09:30:31;;;;;;;283.27;272.07;;;7.30;99.90;;;;;;4400893;32;20231;-65
2021/12/19 09:32:58;;;;;;;294.40;282.57;;;7.40;99.90;;;;;;4406826;32;20187;-68
2021/12/19 09:35:26;;;;;;;273.13;262.03;;;7.50;99.90;;;;;;4402032;32;20207;-68
2021/12/19 09:37:53;;;;;;;298.90;286.53;;;7.50;99.90;;;;;;4403740;32;20186;-66
2021/12/19 09:40:23;;;;;;;269.27;258.40;;;7.60;99.90;;;;;;4409666;32;20140;-66
2021/12/19 09:42:51;;;;;;;254.53;244.10;;;7.70;99.90;;;;;;4403184;32;20160;-66
2021/12/19 09:45:19;;;;;;;264.13;253.37;;;7.60;99.90;;;;;;4412413;32;20182;-66
2021/12/19 09:47:47;;;;;;;269.50;258.53;;;7.60;99.90;;;;;;4405451;32;20237;-66
2021/12/19 09:50:14;;;;;;;274.33;262.90;;;7.60;99.90;;;;;;4404836;32;20178;-66
2021/12/19 09:52:42;;;;;;;270.53;259.00;;;7.60;99.90;;;;;;4400520;32;20176;-65
2021/12/19 09:55:10;;;;;;;265.87;254.33;;;7.60;99.90;;;;;;4402076;32;20170;-65
2021/12/19 09:57:37;;;;;;;292.53;280.33;;;7.60;99.90;;;;;;4402298;32;20163;-65
2021/12/19 10:00:05;;;;;;;271.83;260.53;;;7.60;99.90;;;;;;4403486;32;20227;-67
2021/12/19 10:02:32;;;;;;;279.73;268.30;;;7.50;99.90;;;;;;4396293;32;20219;-68
2021/12/19 10:05:13;;;;;;;267.40;256.40;;;7.50;99.90;;;;;;4405615;32;20163;-67
2021/12/19 10:07:48;;;;;;;296.87;284.17;;;7.60;99.90;;;;;;4407354;32;20203;-68
2021/12/19 10:10:26;;;;;;;292.63;280.33;;;7.60;99.90;;;;;;4409034;32;20174;-67
2021/12/19 10:12:54;;;;;;;295.23;283.03;;;7.60;99.90;;;;;;4399400;32;20179;-67
2021/12/19 10:15:30;;;;;;;284.30;272.47;;;7.80;99.90;;;;;;4408973;32;20152;-64
2021/12/19 10:18:04;;;;;;;267.37;256.40;;;7.80;99.90;;;;;;4406206;32;20484;-67
2021/12/19 10:20:49;;;;;;;265.00;254.20;;;7.90;99.90;;;;;;4403906;32;20172;-68
2021/12/19 10:23:21;;;;;;;256.13;245.60;;;7.80;99.90;;;;;;4409196;32;20238;-66
2021/12/19 10:26:00;;;;;;;248.07;236.87;;;7.70;99.90;;;;;;4411916;32;20179;-69
2021/12/19 10:28:30;;;;;;;237.47;226.77;;;7.60;99.90;;;;;;4408645;32;20210;-66
2021/12/19 10:31:22;;;;;;;269.97;258.77;;;7.60;99.90;;;;;;4399958;32;20151;-67
2021/12/19 10:33:57;;;;;;;239.27;229.13;;;7.70;99.90;;;;;;4414316;32;20208;-65
2021/12/19 10:36:28;;;;;;;255.97;244.80;;;7.80;99.90;;;;;;4418612;32;20173;-67
2021/12/19 10:38:56;;;;;;;254.87;244.30;;;7.70;99.90;;;;;;4419802;32;20198;-68
2021/12/19 10:41:32;;;;;;;255.83;245.07;;;7.70;99.90;;;;;;4421952;32;20505;-68
2021/12/19 10:44:04;;;;;;;261.23;249.10;;;7.60;99.90;;;;;;4418969;32;20154;-68
2021/12/19 10:46:34;;;;;;;274.50;263.17;;;7.70;99.90;;;;;;4421897;32;20148;-69
2021/12/19 10:49:03;;;;;;;257.57;247.00;;;7.60;99.90;;;;;;4415687;32;20220;-66
2021/12/19 10:51:30;;;;;;;269.13;257.93;;;7.50;99.90;;;;;;4407805;32;20147;-66
2021/12/19 10:54:01;;;;;;;264.13;252.77;;;7.60;99.90;;;;;;4407843;32;20249;-67
2021/12/19 10:56:30;;;;;;;272.70;260.83;;;7.60;99.90;;;;;;4407608;32;20510;-66
2021/12/19 10:58:58;;;;;;;281.30;269.70;;;7.60;99.90;;;;;;4407745;32;20241;-67
2021/12/19 11:01:29;;;;;;;269.97;258.77;;;7.50;99.90;;;;;;4416521;32;20179;-66
2021/12/19 11:03:59;;;;;;;299.53;286.67;;;7.50;99.90;;;;;;4418516;32;20208;-69
2021/12/19 11:06:30;;;;;;;275.00;263.47;;;7.50;99.90;;;;;;4420055;32;20175;-67
2021/12/19 11:08:59;;;;;;;276.53;264.73;;;7.50;99.90;;;;;;4420856;32;20258;-65
2021/12/19 11:11:39;;;;;;;280.30;268.27;;;7.50;99.90;;;;;;4415440;32;20185;-67
2021/12/19 11:14:06;;;;;;;264.23;252.67;;;7.60;99.90;;;;;;4419169;32;20175;-71
2021/12/19 11:16:33;;;;;;;263.87;252.30;;;7.60;99.90;;;;;;4410645;32;20262;-67
2021/12/19 11:19:00;;;;;;;287.10;275.10;;;7.60;99.90;;;;;;4416639;32;20194;-67
2021/12/19 11:21:32;;;;;;;282.40;270.20;;;7.60;99.90;;;;;;4408376;32;20217;-69
2021/12/19 11:24:01;;;;;;;248.20;237.73;;;7.60;99.90;;;;;;4407686;32;20163;-68
2021/12/19 11:26:29;;;;;;;241.53;230.93;;;7.60;99.90;;;;;;4407437;32;20152;-67
2021/12/19 11:28:57;;;;;;;257.47;246.00;;;7.60;99.90;;;;;;4407459;32;20152;-69
2021/12/19 11:31:27;;;;;;;275.53;263.87;;;7.70;99.90;;;;;;4408573;32;20152;-66
2021/12/19 11:34:07;;;;;;;277.40;265.43;;;7.60;99.90;;;;;;4414594;32;20561;-66
2021/12/19 11:36:38;;;;;;;249.07;238.37;;;7.70;99.90;;;;;;4406914;32;20215;-69
2021/12/19 11:39:08;;;;;;;267.20;255.37;;;7.80;99.90;;;;;;4413750;32;20181;-68
2021/12/19 11:41:36;;;;;;;257.77;246.77;;;7.80;99.90;;;;;;4417400;32;20172;-68
2021/12/19 11:44:07;;;;;;;267.33;255.93;;;7.80;99.90;;;;;;4414839;32;20204;-67
2021/12/19 11:46:45;;;;;;;266.83;255.43;;;7.70;99.90;;;;;;4417251;32;20602;-67
2021/12/19 11:49:19;;;;;;;261.13;249.83;;;7.70;99.90;;;;;;4413272;32;20173;-67
2021/12/19 11:51:46;;;;;;;257.17;246.30;;;7.90;99.90;;;;;;4413187;32;20192;-69
2021/12/19 11:54:16;;;;;;;235.50;225.30;;;7.90;99.90;;;;;;4411123;32;20493;-69
2021/12/19 11:57:08;;;;;;;241.63;231.30;;;7.90;99.90;;;;;;4411284;32;20183;-67
2021/12/19 11:59:36;;;;;;;226.97;217.27;;;7.80;99.90;;;;;;4414432;32;20238;-68
2021/12/19 12:02:22;;;;;;;237.13;227.17;;;7.80;99.90;;;;;;4415362;32;20151;-69
2021/12/19 12:05:20;;;;;;;215.60;206.33;;;8.00;99.90;;;;;;4410952;32;20167;-68
2021/12/19 12:08:13;;;;;;;217.93;208.37;;;8.10;99.90;;;;;;4415103;32;20215;-68
2021/12/19 12:11:11;;;;;;;233.47;223.70;;;8.20;99.90;;;;;;4412212;32;20148;-68
2021/12/19 12:13:40;;;;;;;256.73;245.97;;;8.20;99.90;;;;;;4363472;32;20259;-67
2021/12/19 12:16:38;;;;;;;301.13;288.53;;;8.20;99.90;;;;;;4371726;32;20200;-68
2021/12/19 12:19:07;;;;;;;334.47;320.80;;;8.20;99.90;;;;;;4346047;32;20193;-69
2021/12/19 12:21:40;;;;;;;383.90;367.60;;;8.10;99.90;;;;;;4333805;33;20639;-67
2021/12/19 12:24:15;;;;;;;399.93;382.57;;;8.10;99.90;;;;;;4342716;33;20277;-65
2021/12/19 12:26:56;;;;;;;393.23;376.00;;;8.00;99.90;;;;;;4341980;33;20193;-64
2021/12/19 12:29:24;;;;;;;362.90;347.77;;;8.00;99.90;;;;;;4339766;33;20250;-67
2021/12/19 12:31:52;;;;;;;358.90;343.60;;;8.10;99.90;;;;;;4341512;33;20232;-67
2021/12/19 12:34:19;;;;;;;406.83;389.07;;;8.10;99.90;;;;;;4341564;33;20188;-68
2021/12/19 12:36:47;;;;;;;406.50;388.70;;;7.90;99.90;;;;;;4342820;33;20225;-66
2021/12/19 12:39:18;;;;;;;370.90;355.53;;;7.80;99.90;;;;;;4343397;33;20191;-66
2021/12/19 12:41:59;;;;;;;327.63;313.30;;;7.80;99.90;;;;;;4343956;33;20187;-67
2021/12/19 12:44:27;;;;;;;289.07;276.90;;;7.70;99.90;;;;;;4338025;33;20183;-66
2021/12/19 12:46:54;;;;;;;285.33;273.80;;;7.80;99.90;;;;;;4345581;33;20228;-66
2021/12/19 12:49:24;;;;;;;272.27;260.50;;;7.90;99.90;;;;;;4360781;32;20216;-66
2021/12/19 12:52:01;;;;;;;287.43;275.03;;;7.90;99.90;;;;;;4388404;32;20174;-68
2021/12/19 12:54:33;;;;;;;281.77;269.37;;;7.90;99.90;;;;;;4389060;32;20234;-70
2021/12/19 12:57:04;;;;;;;280.97;265.40;;;7.90;99.90;;;;;;4413154;32;20493;-64
2021/12/19 12:59:33;;;;;;;279.67;267.67;;;7.80;99.90;;;;;;4412942;32;20187;-68
2021/12/19 13:02:09;;;;;;;299.20;284.20;;;7.80;99.90;;;;;;4418500;32;20488;-65
2021/12/19 13:04:37;;;;;;;270.60;258.93;;;8.00;99.90;;;;;;4409945;32;20336;-66
2021/12/19 13:07:05;;;;;;;266.97;255.60;;;8.00;99.90;;;;;;4413630;32;20170;-69
2021/12/19 13:09:37;;;;;;;275.17;263.27;;;7.90;99.90;;;;;;4406339;32;20182;-68
2021/12/19 13:12:12;;;;;;;301.63;289.30;;;7.80;99.90;;;;;;4414102;32;20163;-66
2021/12/19 13:14:41;;;;;;;285.33;273.20;;;7.80;99.90;;;;;;4416493;32;20689;-68
2021/12/19 13:17:10;;;;;;;268.93;257.43;;;7.80;99.90;;;;;;4409943;32;20185;-69
2021/12/19 13:19:52;;;;;;;266.97;255.47;;;7.70;99.90;;;;;;4410265;32;20174;-67
2021/12/19 13:22:38;;;;;;;262.73;251.80;;;7.60;99.90;;;;;;4410829;32;20226;-66